sensor_id;sensor_type;location;lat;lon;timestamp;P1;durP1;ratioP1;P2;durP2;ratioP2
479;SDS011;226;48.606;9.096;2022-07-23T00:00:56;7.00;;;3.57;;
479;SDS011;226;48.606;9.096;2022-07-23T00:03:25;5.33;;;3.80;;
479;SDS011;226;48.606;9.096;2022-07-23T00:05:53;4.93;;;3.20;;
479;SDS011;226;48.606;9.096;2022-07-23T00:08:21;5.23;;;3.40;;
479;SDS011;226;48.606;9.096;2022-07-23T00:10:49;5.63;;;4.00;;
479;SDS011;226;48.606;9.096;2022-07-23T00:13:17;3.60;;;3.30;;
479;SDS011;226;48.606;9.096;2022-07-23T00:15:45;4.90;;;3.30;;
479;SDS011;226;48.606;9.096;2022-07-23T00:18:14;5.50;;;3.20;;
479;SDS011;226;48.606;9.096;2022-07-23T00:20:42;7.97;;;3.50;;
479;SDS011;226;48.606;9.096;2022-07-23T00:23:10;4.93;;;3.00;;
479;SDS011;226;48.606;9.096;2022-07-23T00:25:38;7.00;;;3.80;;
479;SDS011;226;48.606;9.096;2022-07-23T00:28:06;4.80;;;3.40;;
479;SDS011;226;48.606;9.096;2022-07-23T00:30:34;4.10;;;2.80;;
479;SDS011;226;48.606;9.096;2022-07-23T00:33:03;5.37;;;3.17;;
479;SDS011;226;48.606;9.096;2022-07-23T00:35:35;6.60;;;4.33;;
479;SDS011;226;48.606;9.096;2022-07-23T00:38:05;6.87;;;3.50;;
479;SDS011;226;48.606;9.096;2022-07-23T00:40:34;6.53;;;3.23;;
479;SDS011;226;48.606;9.096;2022-07-23T00:43:02;4.03;;;3.40;;
479;SDS011;226;48.606;9.096;2022-07-23T00:45:31;11.20;;;3.90;;
479;SDS011;226;48.606;9.096;2022-07-23T00:48:00;6.47;;;3.33;;
479;SDS011;226;48.606;9.096;2022-07-23T00:50:28;4.30;;;3.33;;
479;SDS011;226;48.606;9.096;2022-07-23T00:52:58;5.30;;;3.60;;
479;SDS011;226;48.606;9.096;2022-07-23T00:55:26;4.13;;;2.87;;
479;SDS011;226;48.606;9.096;2022-07-23T00:57:54;4.47;;;2.40;;
479;SDS011;226;48.606;9.096;2022-07-23T01:00:23;5.10;;;3.30;;
479;SDS011;226;48.606;9.096;2022-07-23T01:02:51;9.50;;;4.13;;
479;SDS011;226;48.606;9.096;2022-07-23T01:05:19;6.13;;;2.93;;
479;SDS011;226;48.606;9.096;2022-07-23T01:07:48;4.80;;;2.90;;
479;SDS011;226;48.606;9.096;2022-07-23T01:10:23;4.80;;;3.27;;
479;SDS011;226;48.606;9.096;2022-07-23T01:13:02;3.87;;;2.70;;
479;SDS011;226;48.606;9.096;2022-07-23T01:15:32;4.47;;;3.53;;
479;SDS011;226;48.606;9.096;2022-07-23T01:18:01;4.13;;;2.93;;
479;SDS011;226;48.606;9.096;2022-07-23T01:20:30;4.07;;;3.00;;
479;SDS011;226;48.606;9.096;2022-07-23T01:23:00;3.37;;;2.40;;
479;SDS011;226;48.606;9.096;2022-07-23T01:25:29;6.30;;;3.70;;
479;SDS011;226;48.606;9.096;2022-07-23T01:27:57;3.03;;;2.50;;
479;SDS011;226;48.606;9.096;2022-07-23T01:30:25;3.03;;;2.43;;
479;SDS011;226;48.606;9.096;2022-07-23T01:32:53;3.80;;;2.80;;
479;SDS011;226;48.606;9.096;2022-07-23T01:35:21;3.67;;;3.10;;
479;SDS011;226;48.606;9.096;2022-07-23T01:37:49;5.53;;;3.00;;
479;SDS011;226;48.606;9.096;2022-07-23T01:40:18;4.80;;;2.80;;
479;SDS011;226;48.606;9.096;2022-07-23T01:42:48;4.07;;;2.70;;
479;SDS011;226;48.606;9.096;2022-07-23T01:45:16;4.27;;;3.50;;
479;SDS011;226;48.606;9.096;2022-07-23T01:47:44;3.50;;;3.17;;
479;SDS011;226;48.606;9.096;2022-07-23T01:50:12;4.03;;;3.00;;
479;SDS011;226;48.606;9.096;2022-07-23T01:52:40;3.43;;;2.40;;
479;SDS011;226;48.606;9.096;2022-07-23T01:55:08;7.23;;;3.67;;
479;SDS011;226;48.606;9.096;2022-07-23T01:57:46;4.40;;;2.70;;
479;SDS011;226;48.606;9.096;2022-07-23T02:00:14;5.13;;;2.80;;
479;SDS011;226;48.606;9.096;2022-07-23T02:02:42;4.27;;;2.50;;
479;SDS011;226;48.606;9.096;2022-07-23T02:05:10;3.50;;;3.00;;
479;SDS011;226;48.606;9.096;2022-07-23T02:07:38;6.37;;;3.40;;
479;SDS011;226;48.606;9.096;2022-07-23T02:10:07;6.60;;;3.30;;
479;SDS011;226;48.606;9.096;2022-07-23T02:12:35;5.50;;;3.67;;
479;SDS011;226;48.606;9.096;2022-07-23T02:15:06;5.47;;;3.13;;
479;SDS011;226;48.606;9.096;2022-07-23T02:17:35;5.90;;;3.70;;
479;SDS011;226;48.606;9.096;2022-07-23T02:20:04;3.93;;;2.50;;
479;SDS011;226;48.606;9.096;2022-07-23T02:22:33;6.23;;;3.10;;
479;SDS011;226;48.606;9.096;2022-07-23T02:25:02;4.67;;;3.20;;
479;SDS011;226;48.606;9.096;2022-07-23T02:27:31;4.20;;;2.60;;
479;SDS011;226;48.606;9.096;2022-07-23T02:29:59;3.10;;;2.80;;
479;SDS011;226;48.606;9.096;2022-07-23T02:32:28;3.53;;;2.87;;
479;SDS011;226;48.606;9.096;2022-07-23T02:34:56;4.40;;;3.20;;
479;SDS011;226;48.606;9.096;2022-07-23T02:37:24;3.53;;;3.23;;
479;SDS011;226;48.606;9.096;2022-07-23T02:39:52;4.77;;;2.77;;
479;SDS011;226;48.606;9.096;2022-07-23T02:42:21;4.80;;;2.77;;
479;SDS011;226;48.606;9.096;2022-07-23T02:44:50;3.97;;;2.90;;
479;SDS011;226;48.606;9.096;2022-07-23T02:47:18;5.90;;;3.67;;
479;SDS011;226;48.606;9.096;2022-07-23T02:49:47;3.53;;;2.03;;
479;SDS011;226;48.606;9.096;2022-07-23T02:52:15;6.10;;;3.50;;
479;SDS011;226;48.606;9.096;2022-07-23T02:54:43;4.97;;;2.73;;
479;SDS011;226;48.606;9.096;2022-07-23T02:57:11;3.50;;;3.20;;
479;SDS011;226;48.606;9.096;2022-07-23T02:59:39;4.00;;;2.87;;
479;SDS011;226;48.606;9.096;2022-07-23T03:02:07;3.13;;;2.87;;
479;SDS011;226;48.606;9.096;2022-07-23T03:04:35;3.60;;;3.30;;
479;SDS011;226;48.606;9.096;2022-07-23T03:07:05;4.40;;;2.70;;
479;SDS011;226;48.606;9.096;2022-07-23T03:09:33;4.83;;;3.40;;
479;SDS011;226;48.606;9.096;2022-07-23T03:12:01;3.80;;;3.00;;
479;SDS011;226;48.606;9.096;2022-07-23T03:14:29;6.23;;;4.13;;
479;SDS011;226;48.606;9.096;2022-07-23T03:16:57;4.30;;;3.10;;
479;SDS011;226;48.606;9.096;2022-07-23T03:19:26;6.80;;;3.37;;
479;SDS011;226;48.606;9.096;2022-07-23T03:21:54;12.33;;;3.87;;
479;SDS011;226;48.606;9.096;2022-07-23T03:24:24;3.33;;;3.03;;
479;SDS011;226;48.606;9.096;2022-07-23T03:27:12;8.10;;;3.83;;
479;SDS011;226;48.606;9.096;2022-07-23T03:29:40;6.53;;;4.20;;
479;SDS011;226;48.606;9.096;2022-07-23T03:32:08;9.37;;;4.93;;
479;SDS011;226;48.606;9.096;2022-07-23T03:34:36;5.60;;;4.40;;
479;SDS011;226;48.606;9.096;2022-07-23T03:37:04;6.70;;;3.30;;
479;SDS011;226;48.606;9.096;2022-07-23T03:39:34;7.73;;;3.70;;
479;SDS011;226;48.606;9.096;2022-07-23T03:42:02;7.03;;;4.30;;
479;SDS011;226;48.606;9.096;2022-07-23T03:44:30;5.07;;;3.60;;
479;SDS011;226;48.606;9.096;2022-07-23T03:46:58;6.03;;;3.57;;
479;SDS011;226;48.606;9.096;2022-07-23T03:49:26;4.30;;;3.53;;
479;SDS011;226;48.606;9.096;2022-07-23T03:51:54;5.30;;;3.10;;
479;SDS011;226;48.606;9.096;2022-07-23T03:54:22;8.57;;;3.80;;
479;SDS011;226;48.606;9.096;2022-07-23T03:56:52;5.17;;;3.63;;
479;SDS011;226;48.606;9.096;2022-07-23T03:59:20;6.43;;;3.70;;
479;SDS011;226;48.606;9.096;2022-07-23T04:01:49;5.20;;;2.90;;
479;SDS011;226;48.606;9.096;2022-07-23T04:04:17;5.40;;;2.80;;
479;SDS011;226;48.606;9.096;2022-07-23T04:06:45;7.30;;;4.37;;
479;SDS011;226;48.606;9.096;2022-07-23T04:09:13;5.40;;;3.90;;
479;SDS011;226;48.606;9.096;2022-07-23T04:11:41;5.77;;;3.70;;
479;SDS011;226;48.606;9.096;2022-07-23T04:14:11;6.27;;;4.00;;
479;SDS011;226;48.606;9.096;2022-07-23T04:16:39;6.80;;;4.03;;
479;SDS011;226;48.606;9.096;2022-07-23T04:19:07;6.13;;;2.77;;
479;SDS011;226;48.606;9.096;2022-07-23T04:21:35;5.00;;;3.27;;
479;SDS011;226;48.606;9.096;2022-07-23T04:24:04;4.70;;;3.33;;
479;SDS011;226;48.606;9.096;2022-07-23T04:26:32;7.30;;;4.17;;
479;SDS011;226;48.606;9.096;2022-07-23T04:29:00;6.40;;;3.50;;
479;SDS011;226;48.606;9.096;2022-07-23T04:31:30;8.80;;;3.77;;
479;SDS011;226;48.606;9.096;2022-07-23T04:34:03;6.40;;;4.00;;
479;SDS011;226;48.606;9.096;2022-07-23T04:36:31;6.80;;;3.70;;
479;SDS011;226;48.606;9.096;2022-07-23T04:38:59;5.33;;;3.43;;
479;SDS011;226;48.606;9.096;2022-07-23T04:41:27;5.10;;;3.80;;
479;SDS011;226;48.606;9.096;2022-07-23T04:43:56;5.23;;;3.47;;
479;SDS011;226;48.606;9.096;2022-07-23T04:46:24;5.37;;;3.37;;
479;SDS011;226;48.606;9.096;2022-07-23T04:48:53;6.10;;;3.70;;
479;SDS011;226;48.606;9.096;2022-07-23T04:51:22;7.50;;;3.97;;
479;SDS011;226;48.606;9.096;2022-07-23T04:53:50;4.47;;;3.20;;
479;SDS011;226;48.606;9.096;2022-07-23T04:56:18;6.83;;;3.90;;
479;SDS011;226;48.606;9.096;2022-07-23T04:58:46;6.80;;;4.07;;
479;SDS011;226;48.606;9.096;2022-07-23T05:01:14;6.27;;;3.77;;
479;SDS011;226;48.606;9.096;2022-07-23T05:03:42;8.30;;;4.73;;
479;SDS011;226;48.606;9.096;2022-07-23T05:06:11;7.33;;;4.03;;
479;SDS011;226;48.606;9.096;2022-07-23T05:08:39;5.60;;;3.87;;
479;SDS011;226;48.606;9.096;2022-07-23T05:11:07;4.90;;;3.50;;
479;SDS011;226;48.606;9.096;2022-07-23T05:13:35;4.53;;;3.20;;
479;SDS011;226;48.606;9.096;2022-07-23T05:16:04;11.60;;;4.43;;
479;SDS011;226;48.606;9.096;2022-07-23T05:18:32;4.80;;;3.57;;
479;SDS011;226;48.606;9.096;2022-07-23T05:21:00;5.50;;;3.80;;
479;SDS011;226;48.606;9.096;2022-07-23T05:23:29;6.80;;;3.80;;
479;SDS011;226;48.606;9.096;2022-07-23T05:25:57;4.07;;;3.33;;
479;SDS011;226;48.606;9.096;2022-07-23T05:28:26;13.23;;;4.30;;
479;SDS011;226;48.606;9.096;2022-07-23T05:30:54;4.37;;;3.27;;
479;SDS011;226;48.606;9.096;2022-07-23T05:33:22;5.63;;;4.10;;
479;SDS011;226;48.606;9.096;2022-07-23T05:35:50;15.97;;;4.53;;
479;SDS011;226;48.606;9.096;2022-07-23T05:38:18;5.60;;;3.93;;
479;SDS011;226;48.606;9.096;2022-07-23T05:40:47;4.87;;;3.50;;
479;SDS011;226;48.606;9.096;2022-07-23T05:43:15;6.77;;;5.00;;
479;SDS011;226;48.606;9.096;2022-07-23T05:45:43;6.20;;;4.03;;
479;SDS011;226;48.606;9.096;2022-07-23T05:48:11;7.93;;;4.53;;
479;SDS011;226;48.606;9.096;2022-07-23T05:50:39;6.03;;;4.27;;
479;SDS011;226;48.606;9.096;2022-07-23T05:53:08;7.50;;;4.37;;
479;SDS011;226;48.606;9.096;2022-07-23T05:55:36;5.07;;;4.10;;
479;SDS011;226;48.606;9.096;2022-07-23T05:58:05;6.77;;;5.10;;
479;SDS011;226;48.606;9.096;2022-07-23T06:00:35;7.63;;;4.50;;
479;SDS011;226;48.606;9.096;2022-07-23T06:03:03;8.20;;;4.43;;
479;SDS011;226;48.606;9.096;2022-07-23T06:05:31;6.40;;;4.57;;
479;SDS011;226;48.606;9.096;2022-07-23T06:07:59;10.03;;;5.17;;
479;SDS011;226;48.606;9.096;2022-07-23T06:10:27;4.67;;;3.63;;
479;SDS011;226;48.606;9.096;2022-07-23T06:12:55;5.27;;;4.00;;
479;SDS011;226;48.606;9.096;2022-07-23T06:15:29;5.80;;;4.10;;
479;SDS011;226;48.606;9.096;2022-07-23T06:17:57;5.97;;;4.33;;
479;SDS011;226;48.606;9.096;2022-07-23T06:20:25;6.93;;;3.97;;
479;SDS011;226;48.606;9.096;2022-07-23T06:22:53;6.50;;;4.63;;
479;SDS011;226;48.606;9.096;2022-07-23T06:25:21;7.60;;;4.93;;
479;SDS011;226;48.606;9.096;2022-07-23T06:27:50;7.70;;;4.90;;
479;SDS011;226;48.606;9.096;2022-07-23T06:30:18;8.47;;;5.30;;
479;SDS011;226;48.606;9.096;2022-07-23T06:32:48;7.97;;;4.80;;
479;SDS011;226;48.606;9.096;2022-07-23T06:35:16;8.30;;;5.20;;
479;SDS011;226;48.606;9.096;2022-07-23T06:37:44;11.03;;;5.40;;
479;SDS011;226;48.606;9.096;2022-07-23T06:40:13;11.77;;;4.97;;
479;SDS011;226;48.606;9.096;2022-07-23T06:42:42;7.20;;;4.47;;
479;SDS011;226;48.606;9.096;2022-07-23T06:45:10;8.47;;;4.13;;
479;SDS011;226;48.606;9.096;2022-07-23T06:47:40;9.37;;;5.13;;
479;SDS011;226;48.606;9.096;2022-07-23T06:50:10;9.40;;;4.83;;
479;SDS011;226;48.606;9.096;2022-07-23T06:52:38;7.03;;;5.23;;
479;SDS011;226;48.606;9.096;2022-07-23T06:55:08;6.83;;;5.10;;
479;SDS011;226;48.606;9.096;2022-07-23T06:57:37;16.43;;;4.97;;
479;SDS011;226;48.606;9.096;2022-07-23T07:00:05;7.40;;;4.77;;
479;SDS011;226;48.606;9.096;2022-07-23T07:02:34;6.83;;;4.93;;
479;SDS011;226;48.606;9.096;2022-07-23T07:05:03;5.03;;;4.37;;
479;SDS011;226;48.606;9.096;2022-07-23T07:07:33;6.13;;;4.53;;
479;SDS011;226;48.606;9.096;2022-07-23T07:10:02;9.10;;;5.40;;
479;SDS011;226;48.606;9.096;2022-07-23T07:12:30;6.77;;;4.93;;
479;SDS011;226;48.606;9.096;2022-07-23T07:14:58;8.47;;;4.63;;
479;SDS011;226;48.606;9.096;2022-07-23T07:17:27;7.43;;;4.20;;
479;SDS011;226;48.606;9.096;2022-07-23T07:19:55;7.60;;;5.27;;
479;SDS011;226;48.606;9.096;2022-07-23T07:22:23;8.00;;;5.33;;
479;SDS011;226;48.606;9.096;2022-07-23T07:24:52;8.70;;;4.90;;
479;SDS011;226;48.606;9.096;2022-07-23T07:27:20;6.87;;;5.03;;
479;SDS011;226;48.606;9.096;2022-07-23T07:29:48;8.83;;;5.30;;
479;SDS011;226;48.606;9.096;2022-07-23T07:32:16;6.87;;;4.90;;
479;SDS011;226;48.606;9.096;2022-07-23T07:35:04;7.77;;;4.77;;
479;SDS011;226;48.606;9.096;2022-07-23T07:37:33;8.73;;;5.00;;
479;SDS011;226;48.606;9.096;2022-07-23T07:40:03;6.57;;;4.70;;
479;SDS011;226;48.606;9.096;2022-07-23T07:42:31;6.03;;;4.80;;
479;SDS011;226;48.606;9.096;2022-07-23T07:44:59;6.20;;;3.60;;
479;SDS011;226;48.606;9.096;2022-07-23T07:47:27;6.40;;;4.60;;
479;SDS011;226;48.606;9.096;2022-07-23T07:49:55;5.80;;;4.40;;
479;SDS011;226;48.606;9.096;2022-07-23T07:52:23;5.93;;;4.50;;
479;SDS011;226;48.606;9.096;2022-07-23T07:54:51;7.37;;;4.70;;
479;SDS011;226;48.606;9.096;2022-07-23T07:57:21;7.07;;;4.30;;
479;SDS011;226;48.606;9.096;2022-07-23T07:59:51;6.57;;;5.07;;
479;SDS011;226;48.606;9.096;2022-07-23T08:02:22;10.00;;;5.40;;
479;SDS011;226;48.606;9.096;2022-07-23T08:04:50;7.90;;;5.30;;
479;SDS011;226;48.606;9.096;2022-07-23T08:07:18;7.30;;;4.60;;
479;SDS011;226;48.606;9.096;2022-07-23T08:09:46;8.87;;;5.97;;
479;SDS011;226;48.606;9.096;2022-07-23T08:12:14;5.90;;;4.67;;
479;SDS011;226;48.606;9.096;2022-07-23T08:14:44;6.30;;;4.40;;
479;SDS011;226;48.606;9.096;2022-07-23T08:17:12;5.77;;;4.60;;
479;SDS011;226;48.606;9.096;2022-07-23T08:19:41;5.07;;;4.10;;
479;SDS011;226;48.606;9.096;2022-07-23T08:22:09;7.07;;;4.10;;
479;SDS011;226;48.606;9.096;2022-07-23T08:24:37;5.80;;;4.10;;
479;SDS011;226;48.606;9.096;2022-07-23T08:27:05;4.27;;;3.87;;
479;SDS011;226;48.606;9.096;2022-07-23T08:29:33;5.17;;;4.23;;
479;SDS011;226;48.606;9.096;2022-07-23T08:32:03;8.93;;;5.03;;
479;SDS011;226;48.606;9.096;2022-07-23T08:34:51;9.50;;;4.60;;
479;SDS011;226;48.606;9.096;2022-07-23T08:37:19;4.50;;;4.10;;
479;SDS011;226;48.606;9.096;2022-07-23T08:39:48;5.37;;;3.40;;
479;SDS011;226;48.606;9.096;2022-07-23T08:42:17;9.23;;;3.77;;
479;SDS011;226;48.606;9.096;2022-07-23T08:44:46;3.93;;;3.23;;
479;SDS011;226;48.606;9.096;2022-07-23T08:47:16;4.73;;;3.80;;
479;SDS011;226;48.606;9.096;2022-07-23T08:49:47;6.10;;;4.23;;
479;SDS011;226;48.606;9.096;2022-07-23T08:52:15;5.30;;;3.97;;
479;SDS011;226;48.606;9.096;2022-07-23T08:54:43;6.17;;;4.57;;
479;SDS011;226;48.606;9.096;2022-07-23T08:57:11;5.37;;;4.27;;
479;SDS011;226;48.606;9.096;2022-07-23T08:59:39;6.50;;;4.30;;
479;SDS011;226;48.606;9.096;2022-07-23T09:02:08;7.57;;;4.30;;
479;SDS011;226;48.606;9.096;2022-07-23T09:04:37;5.50;;;4.00;;
479;SDS011;226;48.606;9.096;2022-07-23T09:07:06;5.63;;;3.50;;
479;SDS011;226;48.606;9.096;2022-07-23T09:09:34;8.00;;;4.07;;
479;SDS011;226;48.606;9.096;2022-07-23T09:12:03;6.30;;;4.17;;
479;SDS011;226;48.606;9.096;2022-07-23T09:14:39;7.80;;;4.83;;
479;SDS011;226;48.606;9.096;2022-07-23T09:17:08;6.93;;;4.70;;
479;SDS011;226;48.606;9.096;2022-07-23T09:19:39;5.60;;;4.20;;
479;SDS011;226;48.606;9.096;2022-07-23T09:22:18;4.57;;;3.43;;
479;SDS011;226;48.606;9.096;2022-07-23T09:25:04;8.20;;;4.83;;
479;SDS011;226;48.606;9.096;2022-07-23T09:27:47;7.57;;;4.47;;
479;SDS011;226;48.606;9.096;2022-07-23T09:30:21;5.20;;;3.80;;
479;SDS011;226;48.606;9.096;2022-07-23T09:33:03;4.83;;;3.90;;
479;SDS011;226;48.606;9.096;2022-07-23T09:35:46;5.57;;;4.70;;
479;SDS011;226;48.606;9.096;2022-07-23T09:38:16;5.67;;;4.17;;
479;SDS011;226;48.606;9.096;2022-07-23T09:40:45;6.83;;;4.97;;
479;SDS011;226;48.606;9.096;2022-07-23T09:43:25;7.00;;;5.07;;
479;SDS011;226;48.606;9.096;2022-07-23T09:48:47;6.20;;;4.40;;
479;SDS011;226;48.606;9.096;2022-07-23T09:51:17;7.87;;;5.57;;
479;SDS011;226;48.606;9.096;2022-07-23T09:53:47;7.70;;;4.43;;
479;SDS011;226;48.606;9.096;2022-07-23T09:56:15;8.00;;;5.20;;
479;SDS011;226;48.606;9.096;2022-07-23T09:58:47;8.53;;;4.90;;
479;SDS011;226;48.606;9.096;2022-07-23T10:01:18;7.83;;;4.93;;
479;SDS011;226;48.606;9.096;2022-07-23T10:03:48;8.30;;;4.90;;
479;SDS011;226;48.606;9.096;2022-07-23T10:06:18;9.70;;;5.27;;
479;SDS011;226;48.606;9.096;2022-07-23T10:08:46;7.10;;;5.17;;
479;SDS011;226;48.606;9.096;2022-07-23T10:11:17;9.80;;;4.73;;
479;SDS011;226;48.606;9.096;2022-07-23T10:13:45;6.93;;;4.70;;
479;SDS011;226;48.606;9.096;2022-07-23T10:16:24;7.70;;;5.53;;
479;SDS011;226;48.606;9.096;2022-07-23T10:18:54;5.60;;;4.23;;
479;SDS011;226;48.606;9.096;2022-07-23T10:21:27;7.33;;;4.80;;
479;SDS011;226;48.606;9.096;2022-07-23T10:24:12;6.97;;;4.57;;
479;SDS011;226;48.606;9.096;2022-07-23T10:26:52;7.50;;;4.37;;
479;SDS011;226;48.606;9.096;2022-07-23T10:29:45;5.97;;;4.70;;
479;SDS011;226;48.606;9.096;2022-07-23T10:32:23;5.47;;;4.43;;
479;SDS011;226;48.606;9.096;2022-07-23T10:35:03;7.40;;;4.70;;
479;SDS011;226;48.606;9.096;2022-07-23T10:37:42;6.90;;;4.53;;
479;SDS011;226;48.606;9.096;2022-07-23T10:40:13;10.30;;;5.40;;
479;SDS011;226;48.606;9.096;2022-07-23T10:42:43;9.07;;;5.27;;
479;SDS011;226;48.606;9.096;2022-07-23T10:45:22;9.27;;;5.30;;
479;SDS011;226;48.606;9.096;2022-07-23T10:48:11;10.53;;;5.43;;
479;SDS011;226;48.606;9.096;2022-07-23T10:50:41;7.00;;;5.47;;
479;SDS011;226;48.606;9.096;2022-07-23T10:53:13;5.90;;;4.33;;
479;SDS011;226;48.606;9.096;2022-07-23T10:55:47;7.13;;;5.07;;
479;SDS011;226;48.606;9.096;2022-07-23T10:58:18;5.50;;;4.27;;
479;SDS011;226;48.606;9.096;2022-07-23T11:00:48;6.93;;;4.93;;
479;SDS011;226;48.606;9.096;2022-07-23T11:03:33;8.87;;;5.30;;
479;SDS011;226;48.606;9.096;2022-07-23T11:06:05;6.90;;;5.17;;
479;SDS011;226;48.606;9.096;2022-07-23T11:08:35;10.80;;;4.77;;
479;SDS011;226;48.606;9.096;2022-07-23T11:11:12;4.07;;;3.67;;
479;SDS011;226;48.606;9.096;2022-07-23T11:13:41;8.20;;;4.90;;
479;SDS011;226;48.606;9.096;2022-07-23T11:16:22;9.70;;;4.40;;
479;SDS011;226;48.606;9.096;2022-07-23T11:18:58;6.23;;;4.57;;
479;SDS011;226;48.606;9.096;2022-07-23T11:21:44;6.90;;;4.67;;
479;SDS011;226;48.606;9.096;2022-07-23T11:24:18;8.17;;;5.13;;
479;SDS011;226;48.606;9.096;2022-07-23T11:26:53;6.90;;;4.57;;
479;SDS011;226;48.606;9.096;2022-07-23T11:29:42;9.07;;;5.53;;
479;SDS011;226;48.606;9.096;2022-07-23T11:32:22;12.70;;;5.10;;
479;SDS011;226;48.606;9.096;2022-07-23T11:34:59;5.60;;;4.23;;
479;SDS011;226;48.606;9.096;2022-07-23T11:37:30;8.87;;;5.03;;
479;SDS011;226;48.606;9.096;2022-07-23T11:40:07;7.83;;;5.23;;
479;SDS011;226;48.606;9.096;2022-07-23T11:42:37;6.37;;;3.93;;
479;SDS011;226;48.606;9.096;2022-07-23T11:45:06;5.50;;;4.43;;
479;SDS011;226;48.606;9.096;2022-07-23T11:47:35;7.23;;;4.83;;
479;SDS011;226;48.606;9.096;2022-07-23T11:50:04;12.97;;;4.10;;
479;SDS011;226;48.606;9.096;2022-07-23T11:52:34;6.27;;;4.20;;
479;SDS011;226;48.606;9.096;2022-07-23T11:55:03;5.20;;;3.93;;
479;SDS011;226;48.606;9.096;2022-07-23T11:57:34;6.67;;;4.40;;
479;SDS011;226;48.606;9.096;2022-07-23T12:00:06;6.70;;;3.80;;
479;SDS011;226;48.606;9.096;2022-07-23T12:02:37;5.93;;;3.37;;
479;SDS011;226;48.606;9.096;2022-07-23T12:05:06;6.63;;;4.20;;
479;SDS011;226;48.606;9.096;2022-07-23T12:07:38;5.23;;;3.60;;
479;SDS011;226;48.606;9.096;2022-07-23T12:10:11;7.17;;;4.37;;
479;SDS011;226;48.606;9.096;2022-07-23T12:12:42;8.23;;;3.97;;
479;SDS011;226;48.606;9.096;2022-07-23T12:15:12;6.80;;;3.90;;
479;SDS011;226;48.606;9.096;2022-07-23T12:17:42;5.57;;;3.83;;
479;SDS011;226;48.606;9.096;2022-07-23T12:20:17;4.03;;;3.37;;
479;SDS011;226;48.606;9.096;2022-07-23T12:22:47;5.77;;;3.83;;
479;SDS011;226;48.606;9.096;2022-07-23T12:25:18;6.07;;;4.03;;
479;SDS011;226;48.606;9.096;2022-07-23T12:27:57;6.90;;;4.23;;
479;SDS011;226;48.606;9.096;2022-07-23T12:30:28;6.77;;;4.27;;
479;SDS011;226;48.606;9.096;2022-07-23T12:33:00;3.70;;;3.40;;
479;SDS011;226;48.606;9.096;2022-07-23T12:35:30;5.00;;;3.80;;
479;SDS011;226;48.606;9.096;2022-07-23T12:38:05;6.00;;;4.20;;
479;SDS011;226;48.606;9.096;2022-07-23T12:40:37;5.70;;;4.07;;
479;SDS011;226;48.606;9.096;2022-07-23T12:43:17;4.77;;;3.60;;
479;SDS011;226;48.606;9.096;2022-07-23T12:45:47;4.40;;;4.00;;
479;SDS011;226;48.606;9.096;2022-07-23T12:48:24;4.83;;;4.00;;
479;SDS011;226;48.606;9.096;2022-07-23T12:50:54;4.03;;;3.30;;
479;SDS011;226;48.606;9.096;2022-07-23T12:53:25;5.70;;;4.10;;
479;SDS011;226;48.606;9.096;2022-07-23T12:56:00;6.53;;;4.70;;
479;SDS011;226;48.606;9.096;2022-07-23T12:58:41;6.63;;;3.77;;
479;SDS011;226;48.606;9.096;2022-07-23T13:01:23;5.60;;;4.27;;
479;SDS011;226;48.606;9.096;2022-07-23T13:04:00;5.73;;;3.90;;
479;SDS011;226;48.606;9.096;2022-07-23T13:06:38;6.67;;;4.30;;
479;SDS011;226;48.606;9.096;2022-07-23T13:09:09;5.50;;;4.03;;
479;SDS011;226;48.606;9.096;2022-07-23T13:11:40;7.10;;;4.43;;
479;SDS011;226;48.606;9.096;2022-07-23T13:14:09;5.17;;;4.37;;
479;SDS011;226;48.606;9.096;2022-07-23T13:16:38;5.00;;;4.13;;
479;SDS011;226;48.606;9.096;2022-07-23T13:19:07;6.50;;;4.30;;
479;SDS011;226;48.606;9.096;2022-07-23T13:21:37;4.50;;;3.53;;
479;SDS011;226;48.606;9.096;2022-07-23T13:24:06;5.20;;;4.20;;
479;SDS011;226;48.606;9.096;2022-07-23T13:26:35;6.00;;;4.17;;
479;SDS011;226;48.606;9.096;2022-07-23T13:29:06;4.03;;;3.60;;
479;SDS011;226;48.606;9.096;2022-07-23T13:31:36;5.10;;;3.70;;
479;SDS011;226;48.606;9.096;2022-07-23T13:34:05;5.30;;;3.97;;
479;SDS011;226;48.606;9.096;2022-07-23T13:36:33;5.80;;;3.90;;
479;SDS011;226;48.606;9.096;2022-07-23T13:39:02;6.40;;;3.77;;
479;SDS011;226;48.606;9.096;2022-07-23T13:41:33;6.07;;;3.80;;
479;SDS011;226;48.606;9.096;2022-07-23T13:44:01;5.53;;;3.87;;
479;SDS011;226;48.606;9.096;2022-07-23T13:46:31;6.10;;;4.30;;
479;SDS011;226;48.606;9.096;2022-07-23T13:49:00;7.60;;;5.03;;
479;SDS011;226;48.606;9.096;2022-07-23T13:51:32;8.20;;;4.77;;
479;SDS011;226;48.606;9.096;2022-07-23T13:54:00;6.03;;;3.90;;
479;SDS011;226;48.606;9.096;2022-07-23T13:56:29;7.20;;;4.50;;
479;SDS011;226;48.606;9.096;2022-07-23T13:58:57;5.53;;;4.17;;
479;SDS011;226;48.606;9.096;2022-07-23T14:01:26;7.97;;;4.70;;
479;SDS011;226;48.606;9.096;2022-07-23T14:04:16;5.90;;;5.17;;
479;SDS011;226;48.606;9.096;2022-07-23T14:06:44;5.30;;;4.07;;
479;SDS011;226;48.606;9.096;2022-07-23T14:09:18;5.37;;;3.70;;
479;SDS011;226;48.606;9.096;2022-07-23T14:11:46;7.40;;;4.13;;
479;SDS011;226;48.606;9.096;2022-07-23T14:14:14;6.20;;;4.57;;
479;SDS011;226;48.606;9.096;2022-07-23T14:16:42;5.60;;;4.47;;
479;SDS011;226;48.606;9.096;2022-07-23T14:19:11;7.43;;;3.97;;
479;SDS011;226;48.606;9.096;2022-07-23T14:21:40;6.90;;;4.30;;
479;SDS011;226;48.606;9.096;2022-07-23T14:24:10;5.77;;;4.00;;
479;SDS011;226;48.606;9.096;2022-07-23T14:26:38;4.63;;;4.10;;
479;SDS011;226;48.606;9.096;2022-07-23T14:29:06;6.93;;;4.10;;
479;SDS011;226;48.606;9.096;2022-07-23T14:31:34;6.37;;;4.50;;
479;SDS011;226;48.606;9.096;2022-07-23T14:34:02;5.50;;;3.67;;
479;SDS011;226;48.606;9.096;2022-07-23T14:36:33;5.63;;;4.60;;
479;SDS011;226;48.606;9.096;2022-07-23T14:39:06;5.67;;;4.67;;
479;SDS011;226;48.606;9.096;2022-07-23T14:41:36;5.83;;;4.30;;
479;SDS011;226;48.606;9.096;2022-07-23T14:44:04;7.57;;;4.53;;
479;SDS011;226;48.606;9.096;2022-07-23T14:46:32;3.53;;;3.23;;
479;SDS011;226;48.606;9.096;2022-07-23T14:49:01;4.50;;;3.97;;
479;SDS011;226;48.606;9.096;2022-07-23T14:51:31;5.17;;;3.67;;
479;SDS011;226;48.606;9.096;2022-07-23T14:54:00;4.93;;;3.40;;
479;SDS011;226;48.606;9.096;2022-07-23T14:56:29;6.43;;;4.70;;
479;SDS011;226;48.606;9.096;2022-07-23T14:58:57;5.37;;;4.10;;
479;SDS011;226;48.606;9.096;2022-07-23T15:01:27;10.60;;;5.30;;
479;SDS011;226;48.606;9.096;2022-07-23T15:03:55;4.13;;;3.43;;
479;SDS011;226;48.606;9.096;2022-07-23T15:06:43;4.27;;;3.87;;
479;SDS011;226;48.606;9.096;2022-07-23T15:09:11;5.90;;;4.07;;
479;SDS011;226;48.606;9.096;2022-07-23T15:11:41;5.90;;;4.90;;
479;SDS011;226;48.606;9.096;2022-07-23T15:14:10;3.87;;;3.50;;
479;SDS011;226;48.606;9.096;2022-07-23T15:16:50;4.03;;;3.60;;
479;SDS011;226;48.606;9.096;2022-07-23T15:19:19;5.63;;;4.38;;
479;SDS011;226;48.606;9.096;2022-07-23T15:21:47;4.40;;;3.47;;
479;SDS011;226;48.606;9.096;2022-07-23T15:24:15;5.17;;;3.37;;
479;SDS011;226;48.606;9.096;2022-07-23T15:26:45;4.70;;;4.00;;
479;SDS011;226;48.606;9.096;2022-07-23T15:29:13;5.50;;;4.07;;
479;SDS011;226;48.606;9.096;2022-07-23T15:31:46;4.13;;;3.73;;
479;SDS011;226;48.606;9.096;2022-07-23T15:34:24;7.60;;;4.63;;
479;SDS011;226;48.606;9.096;2022-07-23T15:36:52;5.00;;;4.10;;
479;SDS011;226;48.606;9.096;2022-07-23T15:39:21;6.63;;;4.13;;
479;SDS011;226;48.606;9.096;2022-07-23T15:41:52;7.33;;;3.60;;
479;SDS011;226;48.606;9.096;2022-07-23T15:44:20;4.13;;;3.73;;
479;SDS011;226;48.606;9.096;2022-07-23T15:46:54;4.47;;;4.03;;
479;SDS011;226;48.606;9.096;2022-07-23T15:49:24;5.27;;;3.97;;
479;SDS011;226;48.606;9.096;2022-07-23T15:51:53;5.87;;;4.10;;
479;SDS011;226;48.606;9.096;2022-07-23T15:54:23;6.07;;;4.63;;
479;SDS011;226;48.606;9.096;2022-07-23T15:56:53;4.63;;;3.83;;
479;SDS011;226;48.606;9.096;2022-07-23T15:59:21;7.83;;;4.33;;
479;SDS011;226;48.606;9.096;2022-07-23T16:01:56;5.10;;;4.17;;
479;SDS011;226;48.606;9.096;2022-07-23T16:04:24;4.67;;;3.53;;
479;SDS011;226;48.606;9.096;2022-07-23T16:06:52;6.10;;;3.80;;